Time;durP1;ratioP1;P1;durP2;ratioP2;P2;SDS_P1;SDS_P2;PMS_P1;PMS_P2;Temp;Humidity;BMP_temperature;BMP_pressure;BME280_temperature;BME280_humidity;BME280_pressure;Samples;Min_cycle;Max_cycle;Signal;HPM_P1;HPM_P2
2024/01/08 00:01:56;;;;;;;;;12.00;11.50;;;;;7.94;66.56;101032.63;5119942;27;46534;-69
2024/01/08 00:04:22;;;;;;;;;14.50;14.00;;;;;7.93;66.74;101036.03;5119504;27;45477;-72
2024/01/08 00:06:47;;;;;;;;;10.75;10.00;;;;;7.89;66.95;101028.91;5119678;27;45187;-71
2024/01/08 00:09:13;;;;;;;;;10.00;9.50;;;;;7.85;66.89;101020.06;5119974;27;45412;-72
2024/01/08 00:11:39;;;;;;;;;11.50;11.50;;;;;7.77;66.86;101003.19;5119530;27;45990;-72
2024/01/08 00:14:04;;;;;;;;;13.75;11.75;;;;;7.92;67.17;101022.16;5119413;27;46415;-71
2024/01/08 00:16:30;;;;;;;;;11.00;10.00;;;;;7.91;67.16;101027.25;5119732;27;45564;-72
2024/01/08 00:18:56;;;;;;;;;12.50;11.00;;;;;7.90;67.20;101025.50;5119496;27;45599;-71
2024/01/08 00:21:21;;;;;;;;;11.50;11.00;;;;;7.93;67.05;101028.22;5119285;27;46499;-72
2024/01/08 00:23:47;;;;;;;;;13.75;11.00;;;;;7.95;66.99;101029.19;5119532;27;45585;-72
2024/01/08 00:26:13;;;;;;;;;14.00;11.25;;;;;8.00;66.94;101027.72;5119388;27;45401;-72
2024/01/08 00:28:38;;;;;;;;;12.50;10.00;;;;;8.03;66.74;101007.03;5119586;27;45558;-72
2024/01/08 00:31:04;;;;;;;;;9.50;7.75;;;;;7.85;66.79;100978.44;5119211;27;45859;-71
2024/01/08 00:33:29;;;;;;;;;13.50;9.50;;;;;8.01;66.90;101005.19;5119462;27;45516;-72
2024/01/08 00:35:55;;;;;;;;;11.00;10.00;;;;;8.00;66.79;101012.09;5119332;27;45484;-71
2024/01/08 00:38:21;;;;;;;;;12.00;12.00;;;;;7.97;66.87;101006.75;5119532;27;45209;-69
2024/01/08 00:40:46;;;;;;;;;12.00;10.50;;;;;7.95;66.85;101004.06;5118813;27;45410;-70
2024/01/08 00:43:12;;;;;;;;;10.75;10.75;;;;;7.94;66.95;101011.81;5118857;27;45436;-69
2024/01/08 00:45:38;;;;;;;;;12.00;10.00;;;;;7.94;66.99;101019.63;5118844;27;45808;-72
2024/01/08 00:48:04;;;;;;;;;10.00;8.25;;;;;7.95;67.12;101018.78;5119299;27;45484;-70
2024/01/08 00:50:29;;;;;;;;;10.00;8.75;;;;;7.90;67.27;101009.88;5119029;27;46037;-72
2024/01/08 00:52:55;;;;;;;;;11.00;10.50;;;;;7.75;67.27;100989.22;5118818;27;45419;-70
2024/01/08 00:55:20;;;;;;;;;13.75;11.25;;;;;7.87;67.25;101017.53;5119045;27;45402;-72
2024/01/08 00:57:46;;;;;;;;;14.00;12.00;;;;;7.84;67.35;101022.56;5119122;27;45401;-69
2024/01/08 01:00:12;;;;;;;;;13.75;12.00;;;;;7.80;67.45;101007.63;5117288;27;45518;-69
2024/01/08 01:02:40;;;;;;;;;12.75;11.00;;;;;7.79;67.48;101013.66;5118577;27;45539;-70
2024/01/08 01:05:06;;;;;;;;;20.00;15.75;;;;;7.70;67.02;101007.22;5118895;27;45370;-69
2024/01/08 01:07:32;;;;;;;;;15.00;12.00;;;;;7.71;67.58;101008.97;5118894;27;45275;-69
2024/01/08 01:09:57;;;;;;;;;14.00;11.50;;;;;7.37;67.61;100946.66;5118359;27;46048;-72
2024/01/08 01:12:23;;;;;;;;;13.50;12.00;;;;;7.37;67.95;100965.72;5118726;27;45328;-72
2024/01/08 01:14:48;;;;;;;;;48.50;36.00;;;;;7.35;68.15;100966.47;5118721;27;45549;-72
2024/01/08 01:17:14;;;;;;;;;48.50;37.00;;;;;7.52;68.10;100993.28;5118898;27;45202;-71
2024/01/08 01:19:40;;;;;;;;;58.25;46.00;;;;;7.64;67.94;101011.19;5118361;27;45868;-72
2024/01/08 01:22:05;;;;;;;;;18.25;14.50;;;;;7.64;67.59;101008.59;5118215;27;45601;-70
2024/01/08 01:24:31;;;;;;;;;15.50;14.25;;;;;7.67;67.64;101006.16;5118887;27;45594;-71
2024/01/08 01:26:57;;;;;;;;;13.50;12.75;;;;;7.67;67.70;101011.38;5118579;27;45421;-71
2024/01/08 01:29:22;;;;;;;;;15.00;14.00;;;;;7.65;67.90;101013.88;5116908;27;46389;-72
2024/01/08 01:31:48;;;;;;;;;14.25;13.00;;;;;7.66;67.98;101007.88;5118431;27;45653;-71
2024/01/08 01:34:17;;;;;;;;;13.25;11.50;;;;;7.69;68.24;101015.81;5118385;27;45567;-71
2024/01/08 01:36:44;;;;;;;;;14.75;12.25;;;;;7.69;68.01;101012.31;5118534;27;45529;-71
2024/01/08 01:39:11;;;;;;;;;13.75;13.00;;;;;7.76;68.11;101017.91;5118287;27;45488;-72
2024/01/08 01:41:36;;;;;;;;;7.25;7.00;;;;;7.75;68.17;101015.22;5118110;27;45558;-71
2024/01/08 01:44:02;;;;;;;;;14.75;13.75;;;;;7.76;67.83;101020.50;5118593;27;45307;-72
2024/01/08 01:46:48;;;;;;;;;15.00;13.50;;;;;7.70;67.65;101027.09;5118159;27;45458;-72
2024/01/08 01:49:16;;;;;;;;;11.00;10.25;;;;;7.69;68.04;101014.94;5117273;27;45451;-71
2024/01/08 01:51:46;;;;;;;;;14.00;11.00;;;;;7.70;67.89;101009.81;5115580;27;45238;-72
2024/01/08 01:54:13;;;;;;;;;11.50;11.50;;;;;7.72;67.99;101009.88;5118087;27;45819;-69
2024/01/08 01:56:41;;;;;;;;;11.00;10.75;;;;;7.70;67.75;101008.91;5115074;27;45451;-70
2024/01/08 01:59:08;;;;;;;;;12.25;11.50;;;;;7.65;67.81;101011.28;5117587;27;45521;-71
2024/01/08 02:01:35;;;;;;;;;8.50;6.75;;;;;7.63;67.76;101009.44;5117911;27;45360;-72
2024/01/08 02:04:02;;;;;;;;;10.25;9.00;;;;;7.50;67.72;100992.31;5117730;27;45408;-71
2024/01/08 02:06:28;;;;;;;;;14.25;13.25;;;;;7.54;68.07;101015.97;5117883;27;45524;-72
2024/01/08 02:08:54;;;;;;;;;15.75;13.75;;;;;7.50;67.92;101002.72;5117640;27;45498;-70
2024/01/08 02:11:21;;;;;;;;;14.50;11.00;;;;;7.47;67.78;101008.66;5117450;27;45481;-72
2024/01/08 02:13:47;;;;;;;;;10.00;10.00;;;;;7.48;68.32;101004.34;5117738;27;45298;-72
2024/01/08 02:16:14;;;;;;;;;11.75;10.50;;;;;7.50;67.97;101000.13;5117917;27;45383;-72
2024/01/08 02:18:40;;;;;;;;;12.75;11.00;;;;;7.52;67.76;101002.00;5116456;27;45427;-71
2024/01/08 02:21:06;;;;;;;;;10.25;9.75;;;;;7.50;67.35;100994.91;5116386;27;45558;-72
2024/01/08 02:23:31;;;;;;;;;11.00;11.00;;;;;7.52;67.73;100995.88;5117808;27;45560;-71
2024/01/08 02:25:58;;;;;;;;;10.50;9.75;;;;;7.39;67.30;100977.91;5117620;27;45473;-70
2024/01/08 02:28:23;;;;;;;;;9.00;9.00;;;;;7.52;67.55;100977.69;5117569;27;45644;-70
2024/01/08 02:30:49;;;;;;;;;10.25;10.00;;;;;7.59;67.32;100987.59;5117386;27;45543;-69
2024/01/08 02:33:14;;;;;;;;;11.75;10.00;;;;;7.59;67.49;100991.91;5117586;27;45401;-69
2024/01/08 02:35:41;;;;;;;;;11.00;10.50;;;;;7.35;67.34;100951.75;5117531;27;45528;-69
2024/01/08 02:38:07;;;;;;;;;9.75;9.50;;;;;7.50;67.61;100988.03;5117537;27;46256;-69
2024/01/08 02:40:33;;;;;;;;;9.25;8.50;;;;;7.50;67.42;100981.91;5117149;27;45320;-69
2024/01/08 02:42:58;;;;;;;;;9.00;8.00;;;;;7.49;67.50;100981.03;5117289;27;45350;-69
2024/01/08 02:45:24;;;;;;;;;8.00;7.50;;;;;7.50;67.28;100980.22;5117668;27;45346;-69
2024/01/08 02:47:50;;;;;;;;;10.25;9.00;;;;;7.50;67.37;100976.72;5117264;27;45223;-69
2024/01/08 02:50:15;;;;;;;;;10.00;9.25;;;;;7.47;67.58;100977.47;5115771;27;45498;-69
2024/01/08 02:52:44;;;;;;;;;10.00;9.25;;;;;7.47;67.55;100987.88;5117369;27;45383;-69
2024/01/08 02:55:10;;;;;;;;;12.00;10.25;;;;;7.52;67.61;100985.47;5117826;27;45384;-69
2024/01/08 02:57:36;;;;;;;;;12.25;9.00;;;;;7.28;67.36;100936.69;5117340;27;45346;-69
2024/01/08 03:00:04;;;;;;;;;8.00;5.75;;;;;7.54;67.34;100986.44;5117136;27;45421;-69
2024/01/08 03:02:30;;;;;;;;;9.50;9.00;;;;;7.50;67.12;100982.84;5117211;27;45439;-69
2024/01/08 03:04:56;;;;;;;;;11.00;11.00;;;;;7.43;67.11;100979.84;5116940;27;45793;-69
2024/01/08 03:07:21;;;;;;;;;10.00;10.00;;;;;7.39;67.36;100973.59;5116880;27;45705;-69
2024/01/08 03:09:47;;;;;;;;;6.00;5.75;;;;;7.26;67.24;100955.59;5117002;27;45656;-69
2024/01/08 03:12:14;;;;;;;;;9.50;9.00;;;;;7.27;67.33;100958.28;5117161;27;45498;-69
2024/01/08 03:14:40;;;;;;;;;10.50;9.75;;;;;7.31;67.51;100969.72;5117397;27;45450;-69
2024/01/08 03:17:05;;;;;;;;;8.75;7.00;;;;;7.31;67.27;100962.81;5116767;27;45570;-70
2024/01/08 03:19:31;;;;;;;;;9.50;9.00;;;;;7.29;67.55;100960.97;5116918;27;45786;-69
2024/01/08 03:22:00;;;;;;;;;6.00;6.00;;;;;7.28;68.02;100948.78;5116947;27;45367;-69
2024/01/08 03:24:26;;;;;;;;;8.25;7.75;;;;;7.29;67.80;100945.38;5117141;27;45415;-69
2024/01/08 03:26:52;;;;;;;;;10.00;7.75;;;;;7.30;67.67;100958.47;5116483;27;45390;-69
2024/01/08 03:29:17;;;;;;;;;8.75;7.00;;;;;7.22;67.87;100936.41;5117356;27;45493;-69
2024/01/08 03:31:43;;;;;;;;;11.00;11.00;;;;;7.39;67.84;100955.41;5120254;27;45496;-69
2024/01/08 03:34:09;;;;;;;;;14.00;11.00;;;;;7.14;67.68;100914.31;5120562;27;45470;-69
2024/01/08 03:36:35;;;;;;;;;11.75;11.25;;;;;7.40;67.85;100956.28;5119849;27;46052;-69
2024/01/08 03:39:01;;;;;;;;;10.50;10.50;;;;;7.37;68.05;100951.84;5119996;27;46226;-69
2024/01/08 03:41:26;;;;;;;;;13.50;12.00;;;;;7.40;67.84;100958.88;5120356;27;45306;-69
2024/01/08 03:43:52;;;;;;;;;11.50;10.25;;;;;7.37;67.77;100955.31;5120401;27;45438;-69
2024/01/08 03:46:18;;;;;;;;;10.25;10.00;;;;;7.22;67.77;100931.19;5119694;27;46188;-68
2024/01/08 03:48:43;;;;;;;;;10.00;9.50;;;;;7.38;67.54;100953.59;5119971;27;45396;-69
2024/01/08 03:51:10;;;;;;;;;7.25;7.00;;;;;7.39;67.77;100951.94;5120291;27;45479;-69
2024/01/08 03:53:35;;;;;;;;;10.25;9.25;;;;;7.40;67.75;100956.28;5120071;27;45425;-69
2024/01/08 03:56:01;;;;;;;;;9.75;9.00;;;;;7.42;67.48;100955.56;5116788;27;45598;-69
2024/01/08 03:58:27;;;;;;;;;7.25;6.50;;;;;7.46;67.25;100956.59;5119765;27;45467;-69
2024/01/08 04:00:56;;;;;;;;;8.50;7.00;;;;;7.47;67.33;100958.38;5120052;27;45448;-69
2024/01/08 04:03:22;;;;;;;;;6.50;6.00;;;;;7.09;67.04;100887.22;5117445;27;45338;-69
2024/01/08 04:05:47;;;;;;;;;6.00;5.25;;;;;7.46;66.69;100943.59;5119537;27;45261;-69
2024/01/08 04:08:13;;;;;;;;;4.00;4.00;;;;;7.44;66.97;100942.63;5119405;27;45173;-69
2024/01/08 04:10:39;;;;;;;;;6.25;5.00;;;;;7.42;66.71;100946.84;5118555;27;45482;-69
2024/01/08 04:13:05;;;;;;;;;6.00;6.00;;;;;7.13;66.67;100902.16;5119796;27;45443;-69
2024/01/08 04:15:30;;;;;;;;;6.25;5.75;;;;;7.16;66.83;100910.09;5119296;27;45993;-69
2024/01/08 04:17:56;;;;;;;;;5.00;5.00;;;;;7.29;67.02;100943.66;5119445;27;45254;-69
2024/01/08 04:20:21;;;;;;;;;5.50;5.00;;;;;7.18;66.75;100942.22;5116682;27;45369;-69
2024/01/08 04:22:49;;;;;;;;;6.00;5.75;;;;;7.07;66.83;100938.22;5119562;27;45266;-69
2024/01/08 04:25:15;;;;;;;;;6.00;5.50;;;;;6.94;67.35;100941.88;5118898;27;45948;-69
2024/01/08 04:27:40;;;;;;;;;4.50;4.50;;;;;6.98;67.64;100938.63;5119269;27;45278;-68
2024/01/08 04:30:06;;;;;;;;;8.00;5.75;;;;;7.03;67.71;100944.09;5119547;27;45213;-69
2024/01/08 04:32:32;;;;;;;;;7.00;6.50;;;;;7.07;67.92;100943.41;5119705;27;45434;-69
2024/01/08 04:34:57;;;;;;;;;6.75;6.00;;;;;7.11;68.02;100950.56;5119117;27;46000;-69
2024/01/08 04:37:23;;;;;;;;;6.00;5.00;;;;;7.10;67.93;100943.56;5119245;27;45440;-69
2024/01/08 04:39:49;;;;;;;;;9.75;9.25;;;;;7.14;67.81;100953.28;5119187;27;45421;-70
2024/01/08 04:42:14;;;;;;;;;12.50;8.00;;;;;6.88;67.68;100902.63;5118417;27;45474;-71
2024/01/08 04:44:40;;;;;;;;;6.00;4.50;;;;;7.16;67.70;100947.38;5119055;27;45356;-71
2024/01/08 04:47:07;;;;;;;;;9.00;5.00;;;;;7.22;67.70;100954.59;5119029;27;45276;-71
2024/01/08 04:49:32;;;;;;;;;6.00;6.00;;;;;7.27;67.66;100958.28;5119266;27;45563;-72
2024/01/08 04:51:58;;;;;;;;;5.50;5.50;;;;;7.09;67.46;100908.00;5119149;27;45549;-72
2024/01/08 04:54:24;;;;;;;;;9.75;7.50;;;;;7.25;67.52;100936.53;5119016;27;45614;-72
2024/01/08 04:56:49;;;;;;;;;5.00;3.50;;;;;7.34;67.63;100939.59;5118944;27;45510;-71
2024/01/08 04:59:15;;;;;;;;;3.00;3.00;;;;;7.36;67.27;100940.56;5119038;27;45562;-72
2024/01/08 05:01:41;;;;;;;;;5.00;3.00;;;;;7.38;67.28;100932.81;5119383;27;45517;-69
2024/01/08 05:04:06;;;;;;;;;5.25;4.00;;;;;7.29;67.06;100919.38;5117379;27;46134;-69
2024/01/08 05:06:32;;;;;;;;;5.00;5.00;;;;;7.32;67.11;100924.72;5118743;27;45471;-69
2024/01/08 05:08:58;;;;;;;;;4.50;4.00;;;;;7.39;67.25;100941.53;5118772;27;45285;-69
2024/01/08 05:11:24;;;;;;;;;5.00;3.00;;;;;7.39;66.85;100944.13;5119064;27;45330;-69
2024/01/08 05:13:49;;;;;;;;;3.50;3.50;;;;;7.36;67.07;100940.56;5118484;27;46073;-69
2024/01/08 05:16:15;;;;;;;;;10.00;9.25;;;;;7.37;66.88;100939.72;5118575;27;45469;-68
2024/01/08 05:18:40;;;;;;;;;22.75;20.75;;;;;7.30;66.76;100927.28;5119022;27;45676;-69
2024/01/08 05:21:07;;;;;;;;;6.25;6.25;;;;;7.33;66.76;100932.59;5118704;27;45232;-71
2024/01/08 05:23:33;;;;;;;;;3.00;3.00;;;;;7.29;66.95;100930.66;5118451;27;45498;-69
2024/01/08 05:26:00;;;;;;;;;3.00;3.00;;;;;7.23;67.20;100935.56;5118167;27;45558;-69
2024/01/08 05:28:27;;;;;;;;;2.00;2.00;;;;;7.00;67.53;100899.75;5118627;27;45625;-69
2024/01/08 05:30:53;;;;;;;;;9.25;6.25;;;;;7.20;67.78;100944.91;5118639;27;45485;-69
2024/01/08 05:33:18;;;;;;;;;6.00;5.00;;;;;7.21;67.50;100944.13;5118305;27;45905;-69
2024/01/08 05:35:44;;;;;;;;;4.00;4.00;;;;;7.21;67.55;100946.72;5118806;27;45358;-69
2024/01/08 05:38:10;;;;;;;;;4.00;3.00;;;;;7.08;66.92;100917.53;5119363;27;45528;-69
2024/01/08 05:40:36;;;;;;;;;3.00;3.00;;;;;7.20;67.55;100945.78;5119180;27;45383;-69
2024/01/08 05:43:03;;;;;;;;;5.75;3.50;;;;;7.17;68.01;100950.84;5118707;27;45512;-69
2024/01/08 05:45:28;;;;;;;;;7.00;6.25;;;;;7.16;67.80;100959.44;5118589;27;45423;-69
2024/01/08 05:47:54;;;;;;;;;6.50;5.25;;;;;7.16;67.47;100952.56;5118573;27;45214;-69
2024/01/08 05:50:21;;;;;;;;;6.00;6.00;;;;;7.03;67.21;100928.50;5118540;27;45569;-72
2024/01/08 05:52:47;;;;;;;;;4.00;4.00;;;;;7.15;66.83;100939.50;5118528;27;46166;-70
2024/01/08 05:55:14;;;;;;;;;6.00;5.00;;;;;7.13;66.79;100946.31;5118927;27;45647;-69
2024/01/08 05:57:40;;;;;;;;;4.00;3.50;;;;;6.97;66.28;100922.16;5119177;27;45209;-72
2024/01/08 06:00:06;;;;;;;;;5.00;5.00;;;;;7.12;67.01;100949.72;5118711;27;45454;-70
2024/01/08 06:02:32;;;;;;;;;6.50;5.00;;;;;7.09;67.34;100941.78;5118038;27;46145;-69
2024/01/08 06:04:57;;;;;;;;;3.50;3.50;;;;;7.02;67.44;100918.91;5118246;27;45296;-71
2024/01/08 06:07:23;;;;;;;;;5.50;4.50;;;;;7.01;67.43;100919.72;5118657;27;45478;-72
2024/01/08 06:09:48;;;;;;;;;5.00;5.00;;;;;7.20;67.60;100950.09;5118875;27;45319;-71
2024/01/08 06:12:14;;;;;;;;;10.00;8.25;;;;;7.00;67.64;100917.94;5118858;27;46161;-71
2024/01/08 06:14:41;;;;;;;;;9.00;7.00;;;;;7.02;67.32;100912.00;5118572;27;45690;-71
2024/01/08 06:17:11;;;;;;;;;5.25;5.25;;;;;7.21;67.32;100938.91;5118433;27;45214;-72
2024/01/08 06:19:36;;;;;;;;;6.00;6.00;;;;;7.28;67.41;100949.69;5118717;27;45448;-71
2024/01/08 06:22:03;;;;;;;;;9.25;9.00;;;;;7.21;67.27;100937.19;5118243;27;45426;-71
2024/01/08 06:24:28;;;;;;;;;9.50;7.75;;;;;7.24;67.28;100947.75;5118366;27;45463;-71
2024/01/08 06:26:56;;;;;;;;;12.50;10.25;;;;;7.23;67.73;100945.97;5118242;27;45299;-72
2024/01/08 06:29:22;;;;;;;;;7.50;7.25;;;;;7.22;67.49;100946.78;5118525;27;45399;-71
2024/01/08 06:31:48;;;;;;;;;6.25;6.00;;;;;7.20;67.70;100948.38;5117721;27;45505;-70
2024/01/08 06:34:13;;;;;;;;;8.50;7.00;;;;;7.02;67.84;100918.91;5118237;27;45274;-71
2024/01/08 06:36:39;;;;;;;;;5.75;5.75;;;;;7.18;67.60;100939.63;5118380;27;45216;-71
2024/01/08 06:39:05;;;;;;;;;7.00;6.75;;;;;7.01;67.41;100911.94;5118371;27;45431;-71
2024/01/08 06:41:31;;;;;;;;;12.25;11.75;;;;;7.18;67.50;100934.44;5117956;27;45530;-71
2024/01/08 06:43:57;;;;;;;;;6.00;5.25;;;;;7.16;67.70;100933.47;5117982;27;45503;-70
2024/01/08 06:46:23;;;;;;;;;9.00;7.00;;;;;7.17;67.59;100932.66;5118057;27;45485;-71
2024/01/08 06:48:48;;;;;;;;;6.50;6.50;;;;;7.10;67.45;100936.69;5118183;27;45343;-70
2024/01/08 06:51:14;;;;;;;;;82.33;64.00;;;;;7.08;67.66;100933.09;5118019;27;45333;-70
2024/01/08 06:53:39;;;;;;;;;68.75;53.50;;;;;6.86;67.92;100905.13;5117790;27;45546;-71
2024/01/08 06:56:06;;;;;;;;;17.25;15.00;;;;;7.03;68.00;100929.38;5117830;27;45324;-71
2024/01/08 06:58:31;;;;;;;;;9.00;8.75;;;;;7.04;68.12;100938.94;5117978;27;45277;-71
2024/01/08 07:00:57;;;;;;;;;9.00;7.00;;;;;7.05;67.84;100932.94;5117343;27;45486;-71
2024/01/08 07:03:23;;;;;;;;;6.75;6.75;;;;;7.07;67.75;100939.09;5117844;27;45505;-70
2024/01/08 07:05:49;;;;;;;;;33.75;30.75;;;;;7.09;67.52;100928.81;5120771;27;45233;-69
2024/01/08 07:08:14;;;;;;;;;17.75;15.25;;;;;7.02;67.62;100921.50;5121848;27;45494;-71
2024/01/08 07:10:40;;;;;;;;;20.75;19.25;;;;;7.10;67.96;100938.34;5121011;27;45319;-71
2024/01/08 07:13:06;;;;;;;;;11.00;10.00;;;;;7.11;67.67;100935.84;5120026;27;45293;-68
2024/01/08 07:15:35;;;;;;;;;7.00;7.00;;;;;6.91;67.62;100905.38;5119913;27;45492;-68
2024/01/08 07:18:01;;;;;;;;;7.00;6.00;;;;;7.19;67.61;100938.84;5121260;27;45444;-68
2024/01/08 07:20:26;;;;;;;;;11.50;10.00;;;;;7.21;67.67;100934.59;5118734;27;45301;-68
2024/01/08 07:22:52;;;;;;;;;7.25;6.75;;;;;7.27;67.17;100945.28;5120311;27;45305;-68
2024/01/08 07:25:18;;;;;;;;;5.25;5.00;;;;;7.27;66.84;100947.00;5120200;27;45466;-68
2024/01/08 07:27:43;;;;;;;;;7.00;6.00;;;;;7.24;67.08;100946.84;5120330;27;45258;-68
2024/01/08 07:30:10;;;;;;;;;3.50;2.50;;;;;7.24;66.71;100946.84;5120491;27;45498;-69
2024/01/08 07:32:35;;;;;;;;;5.00;3.00;;;;;7.11;66.78;100928.06;5120558;27;45533;-69
2024/01/08 07:35:02;;;;;;;;;4.75;4.50;;;;;7.28;66.57;100957.50;5118841;27;45576;-68
2024/01/08 07:37:28;;;;;;;;;5.50;5.50;;;;;7.27;66.38;100958.28;5119597;27;45643;-68
2024/01/08 07:39:53;;;;;;;;;9.25;8.25;;;;;7.25;66.40;100959.91;5120173;27;45355;-69
2024/01/08 07:42:19;;;;;;;;;17.75;16.25;;;;;7.29;66.47;100961.84;5120888;27;45251;-69
2024/01/08 07:44:44;;;;;;;;;5.00;3.50;;;;;7.33;66.49;100960.31;5120781;27;45436;-68
2024/01/08 07:47:10;;;;;;;;;7.75;7.00;;;;;7.36;66.35;100957.84;5120837;27;45434;-68
2024/01/08 07:49:37;;;;;;;;;5.00;5.00;;;;;7.41;66.58;100953.78;5120386;27;46197;-71
2024/01/08 07:52:02;;;;;;;;;3.00;3.00;;;;;7.42;66.64;100946.84;5120700;27;45516;-69
2024/01/08 07:54:28;;;;;;;;;3.00;3.00;;;;;7.41;66.52;100950.28;5118692;27;45231;-69
2024/01/08 07:56:54;;;;;;;;;4.50;4.50;;;;;7.42;66.65;100952.06;5100290;27;45310;-69
2024/01/08 07:59:19;;;;;;;;;9.75;9.00;;;;;7.47;66.48;100950.59;5100072;27;46017;-68
2024/01/08 08:01:45;;;;;;;;;25.00;21.75;;;;;7.47;65.95;100959.28;5099714;27;45351;-68
2024/01/08 08:04:10;;;;;;;;;23.75;19.25;;;;;7.22;65.96;100915.63;5099742;27;45364;-69
2024/01/08 08:06:36;;;;;;;;;12.00;11.50;;;;;7.35;65.73;100941.38;5099793;27;45405;-69
2024/01/08 08:09:02;;;;;;;;;6.25;5.25;;;;;7.55;66.02;100970.06;5099524;27;45971;-69
2024/01/08 08:11:27;;;;;;;;;2.25;2.25;;;;;7.59;66.26;100971.97;5099762;27;45350;-69
2024/01/08 08:13:53;;;;;;;;;13.00;10.75;;;;;7.60;66.38;100975.47;5099730;27;45332;-69
2024/01/08 08:16:20;;;;;;;;;13.00;10.50;;;;;7.56;66.50;100969.25;5097408;27;45559;-68
2024/01/08 08:18:46;;;;;;;;;14.75;10.75;;;;;7.56;66.71;100971.84;5099360;27;45511;-69
2024/01/08 08:21:11;;;;;;;;;12.75;12.25;;;;;7.53;66.41;100963.88;5098831;27;45318;-69
2024/01/08 08:23:37;;;;;;;;;14.50;12.25;;;;;7.57;66.56;100965.81;5099617;27;45888;-69
2024/01/08 08:26:02;;;;;;;;;10.00;9.75;;;;;7.55;66.40;100970.94;5099635;27;45305;-69
2024/01/08 08:28:29;;;;;;;;;22.00;20.25;;;;;7.63;65.66;100971.31;5099344;27;45451;-70
2024/01/08 08:30:55;;;;;;;;;16.50;15.00;;;;;7.49;65.74;100943.75;5099243;27;45414;-69
2024/01/08 08:33:20;;;;;;;;;16.50;15.00;;;;;7.72;66.01;100968.28;5099464;27;45369;-69
2024/01/08 08:35:46;;;;;;;;;16.75;15.50;;;;;7.75;65.71;100958.91;5099528;27;45508;-69
2024/01/08 08:38:12;;;;;;;;;23.00;20.75;;;;;7.74;64.87;100940.63;5099226;27;45943;-69
2024/01/08 08:40:38;;;;;;;;;18.25;16.75;;;;;7.98;64.37;100953.91;5099365;27;45507;-70
2024/01/08 08:43:05;;;;;;;;;26.25;23.50;;;;;8.04;63.22;100950.69;5099231;27;45362;-70
2024/01/08 08:45:31;;;;;;;;;28.75;23.75;;;;;8.14;62.83;100963.31;5099345;27;45499;-70
2024/01/08 08:47:57;;;;;;;;;18.00;15.50;;;;;8.25;61.94;100969.88;5118600;27;45472;-72
2024/01/08 08:50:22;;;;;;;;;13.75;12.00;;;;;8.32;60.92;100958.94;5119772;27;45534;-69
2024/01/08 08:52:48;;;;;;;;;10.50;9.75;;;;;8.49;60.86;100966.66;5119150;27;45419;-69
2024/01/08 08:55:14;;;;;;;;;14.50;12.75;;;;;8.60;60.95;100972.38;5119690;27;45455;-69
2024/01/08 08:57:39;;;;;;;;;23.75;20.75;;;;;8.64;61.30;100967.34;5119254;27;46231;-69
2024/01/08 09:00:09;;;;;;;;;23.50;16.75;;;;;8.55;61.43;100947.03;5119723;27;45520;-69
2024/01/08 09:02:34;;;;;;;;;15.00;11.75;;;;;8.70;61.00;100966.75;5118466;27;45310;-69
2024/01/08 09:05:00;;;;;;;;;13.50;11.75;;;;;8.59;60.36;100937.59;5119677;27;45415;-69
2024/01/08 09:07:26;;;;;;;;;13.25;12.00;;;;;8.85;59.57;100964.78;5119491;27;45419;-71
2024/01/08 09:09:53;;;;;;;;;6.25;6.25;;;;;8.88;59.02;100962.34;5119279;27;45359;-71
2024/01/08 09:12:18;;;;;;;;;11.00;7.75;;;;;8.93;59.15;100966.03;5119321;27;45508;-71
2024/01/08 09:14:44;;;;;;;;;9.25;7.75;;;;;8.75;58.59;100920.94;5119475;27;45179;-71
2024/01/08 09:17:10;;;;;;;;;5.75;5.75;;;;;9.05;57.98;100952.66;5119401;27;45273;-72
2024/01/08 09:19:37;;;;;;;;;9.75;7.50;;;;;9.12;58.16;100952.06;5119305;27;45369;-71
2024/01/08 09:22:03;;;;;;;;;6.75;6.25;;;;;9.20;57.08;100949.78;5119173;27;45479;-71
2024/01/08 09:24:29;;;;;;;;;7.00;6.00;;;;;9.28;56.96;100957.94;5119387;27;45459;-71
2024/01/08 09:26:55;;;;;;;;;2.50;2.00;;;;;9.33;56.94;100954.69;5118971;27;45449;-71
2024/01/08 09:29:21;;;;;;;;;6.00;5.00;;;;;9.42;57.30;100950.69;5119646;27;45323;-72
2024/01/08 09:31:46;;;;;;;;;6.00;3.25;;;;;9.32;56.45;100919.00;5119269;27;45502;-71
2024/01/08 09:34:12;;;;;;;;;4.25;3.00;;;;;9.54;57.01;100943.34;5119332;27;45530;-71
2024/01/08 09:36:38;;;;;;;;;8.00;7.00;;;;;9.68;56.37;100950.00;5119033;27;45418;-71
2024/01/08 09:39:04;;;;;;;;;19.75;19.00;;;;;9.85;55.35;100944.59;5118799;27;45294;-71
2024/01/08 09:41:29;;;;;;;;;52.75;44.50;;;;;10.12;55.06;100949.97;5118713;27;45362;-72
2024/01/08 09:44:03;;;;;;;;;32.00;31.50;;;;;10.42;53.87;100944.16;5119281;27;45482;-71
2024/01/08 09:46:35;;;;;;;;;50.75;44.00;;;;;10.28;54.07;100914.88;5118612;27;46076;-71
2024/01/08 09:49:03;;;;;;;;;41.00;37.25;;;;;10.28;54.34;100909.66;5118722;27;45555;-71
2024/01/08 09:51:29;;;;;;;;;38.75;32.25;;;;;10.51;54.24;100955.81;5118276;27;45268;-72
2024/01/08 09:53:58;;;;;;;;;47.75;39.25;;;;;10.52;54.48;100952.41;5119045;27;45471;-72
2024/01/08 09:56:26;;;;;;;;;20.75;20.00;;;;;10.46;54.49;100938.19;5117511;27;46371;-71
2024/01/08 09:58:52;;;;;;;;;12.00;12.00;;;;;10.52;55.02;100944.56;5117159;27;45338;-72
2024/01/08 10:01:17;;;;;;;;;8.00;7.50;;;;;10.64;54.83;100951.91;5118769;27;45343;-73
2024/01/08 10:03:43;;;;;;;;;12.75;12.00;;;;;10.71;54.95;100955.66;5117679;27;45509;-73
2024/01/08 10:06:09;;;;;;;;;15.25;14.50;;;;;10.75;54.04;100957.56;5118299;27;45280;-73
2024/01/08 10:08:35;;;;;;;;;6.00;4.75;;;;;10.78;53.92;100960.25;5118673;27;45580;-73
2024/01/08 10:11:03;;;;;;;;;9.00;8.25;;;;;10.85;53.80;100964.00;5118423;27;46139;-69
2024/01/08 10:13:28;;;;;;;;;4.00;4.00;;;;;10.78;54.16;100941.97;5117429;27;45543;-70
2024/01/08 10:15:54;;;;;;;;;3.75;3.00;;;;;10.85;54.19;100923.06;5118637;27;45503;-70
2024/01/08 10:18:20;;;;;;;;;1.75;1.50;;;;;11.10;54.23;100950.94;5118426;27;45251;-70
2024/01/08 10:20:46;;;;;;;;;2.00;1.75;;;;;11.18;53.84;100946.00;5118587;27;45403;-70
2024/01/08 10:23:16;;;;;;;;;1.00;1.00;;;;;11.17;53.51;100946.81;5117132;27;45508;-70
2024/01/08 10:25:49;;;;;;;;;2.00;1.25;;;;;11.28;53.24;100947.16;5118089;27;45340;-70
2024/01/08 10:28:16;;;;;;;;;1.75;1.00;;;;;11.39;53.91;100942.31;5116856;27;45487;-70
2024/01/08 10:30:43;;;;;;;;;5.00;5.00;;;;;11.45;53.39;100945.13;5118298;27;45275;-70
2024/01/08 10:33:08;;;;;;;;;4.00;3.25;;;;;11.55;53.55;100947.19;5116970;27;45626;-70
2024/01/08 10:35:35;;;;;;;;;2.25;2.25;;;;;11.64;52.90;100950.13;5116518;27;45565;-70
2024/01/08 10:38:01;;;;;;;;;4.00;3.25;;;;;11.72;52.45;100943.38;5118330;27;45372;-70
2024/01/08 10:40:28;;;;;;;;;1.25;1.00;;;;;11.72;51.83;100938.16;5121156;27;45341;-70
2024/01/08 10:42:54;;;;;;;;;14.50;14.00;;;;;11.77;52.55;100943.53;5122181;27;45232;-70
2024/01/08 10:45:21;;;;;;;;;3.00;3.00;;;;;11.86;52.53;100948.19;5121730;27;45284;-70
2024/01/08 10:48:00;;;;;;;;;5.00;4.25;;;;;11.91;52.71;100939.63;5121542;27;45553;-70
2024/01/08 10:50:26;;;;;;;;;3.00;2.50;;;;;12.02;51.63;100937.34;5122059;27;45442;-70
2024/01/08 10:52:56;;;;;;;;;2.50;2.50;;;;;12.10;52.02;100938.47;5121784;27;45345;-70
2024/01/08 10:55:25;;;;;;;;;0.00;0.00;;;;;12.14;51.52;100942.97;5121482;27;45294;-70
2024/01/08 10:57:56;;;;;;;;;3.00;3.00;;;;;12.14;51.60;100939.47;5121666;27;45999;-70
2024/01/08 11:00:23;;;;;;;;;4.25;4.25;;;;;12.23;52.04;100933.59;5121452;27;45313;-70
2024/01/08 11:02:49;;;;;;;;;5.00;4.00;;;;;12.32;51.86;100937.38;5121514;27;45514;-67
2024/01/08 11:05:16;;;;;;;;;4.75;4.75;;;;;12.50;51.62;100938.75;5121194;27;46809;-70
2024/01/08 11:07:47;;;;;;;;;5.00;4.00;;;;;12.64;51.54;100933.91;5121326;27;45529;-70
2024/01/08 11:10:12;;;;;;;;;12.25;12.25;;;;;12.73;51.18;100932.44;5121443;27;45365;-70
2024/01/08 11:12:41;;;;;;;;;10.00;8.25;;;;;12.83;51.58;100925.69;5121588;27;45286;-70
2024/01/08 11:15:09;;;;;;;;;8.50;7.75;;;;;12.87;52.04;100903.97;5121091;27;46027;-70
2024/01/08 11:17:35;;;;;;;;;4.00;4.00;;;;;13.14;51.85;100923.88;5121002;27;45245;-70
2024/01/08 11:20:05;;;;;;;;;5.25;4.00;;;;;13.24;51.34;100915.38;5121561;27;45385;-70